Time;durP1;ratioP1;P1;durP2;ratioP2;P2;SDS_P1;SDS_P2;PMS_P1;PMS_P2;Temp;Humidity;BMP_temperature;BMP_pressure;BME280_temperature;BME280_humidity;BME280_pressure;Samples;Min_cycle;Max_cycle;Signal;HPM_P1;HPM_P2
2022/01/31 00:00:57;;;;;;;20.92;15.85;;;17.90;61.80;;;;;;4943332;28;20050;-31
2022/01/31 00:03:23;;;;;;;20.55;16.85;;;18.00;61.70;;;;;;4939384;28;20181;-32
2022/01/31 00:05:48;;;;;;;18.98;15.45;;;17.90;61.90;;;;;;4940560;28;20618;-32
2022/01/31 00:08:20;;;;;;;17.67;14.55;;;17.90;61.70;;;;;;4943883;28;20051;-34
2022/01/31 00:10:46;;;;;;;18.38;14.10;;;17.90;61.80;;;;;;4949471;28;20050;-32
2022/01/31 00:13:13;;;;;;;16.92;14.55;;;18.00;61.30;;;;;;4952139;28;20508;-21
2022/01/31 00:15:42;;;;;;;18.40;14.43;;;18.00;61.30;;;;;;4956447;28;20050;-21
2022/01/31 00:18:08;;;;;;;18.52;14.25;;;17.90;61.10;;;;;;4957222;28;20043;-22
2022/01/31 00:20:34;;;;;;;17.63;13.32;;;17.90;61.10;;;;;;4957339;28;20054;-21
2022/01/31 00:23:00;;;;;;;17.50;13.13;;;17.90;61.40;;;;;;4940111;28;20524;-22
2022/01/31 00:25:25;;;;;;;15.00;12.82;;;17.90;61.10;;;;;;4959427;28;20408;-22
2022/01/31 00:27:51;;;;;;;14.90;12.43;;;18.00;60.80;;;;;;4957863;28;20051;-22
2022/01/31 00:30:17;;;;;;;15.02;12.48;;;17.90;60.80;;;;;;4959207;28;20054;-22
2022/01/31 00:32:42;;;;;;;13.88;12.25;;;18.00;60.60;;;;;;4950116;28;20094;-23
2022/01/31 00:35:08;;;;;;;15.48;11.82;;;18.00;61.40;;;;;;4958789;28;20054;-21
2022/01/31 00:37:34;;;;;;;14.18;11.68;;;18.00;60.50;;;;;;4959143;28;20051;-22
2022/01/31 00:40:00;;;;;;;12.63;11.27;;;18.00;60.50;;;;;;4958265;28;20047;-22
2022/01/31 00:42:27;;;;;;;15.55;12.30;;;18.00;60.40;;;;;;4959501;28;20122;-21
2022/01/31 00:44:56;;;;;;;14.73;11.80;;;18.10;60.30;;;;;;4959409;28;20043;-21
2022/01/31 00:47:24;;;;;;;15.98;11.88;;;18.00;60.40;;;;;;4958737;28;20066;-22
2022/01/31 00:49:53;;;;;;;15.07;12.07;;;18.00;60.40;;;;;;4951213;28;20043;-21
2022/01/31 00:52:19;;;;;;;14.57;11.75;;;17.90;60.50;;;;;;4939131;28;20506;-22
2022/01/31 00:54:45;;;;;;;13.40;11.32;;;17.90;60.70;;;;;;4939937;28;20131;-23
2022/01/31 00:57:11;;;;;;;12.80;11.20;;;17.80;61.00;;;;;;4939436;28;20074;-23
2022/01/31 00:59:36;;;;;;;12.30;10.65;;;17.70;61.10;;;;;;4939787;28;20078;-22
2022/01/31 01:02:02;;;;;;;13.93;11.65;;;17.70;61.20;;;;;;4955417;28;20047;-23
2022/01/31 01:04:28;;;;;;;12.43;11.00;;;17.70;61.20;;;;;;4959112;28;20054;-23
2022/01/31 01:06:53;;;;;;;13.43;10.85;;;17.70;61.40;;;;;;4958870;28;20047;-22
2022/01/31 01:09:19;;;;;;;12.90;10.60;;;17.70;61.30;;;;;;4948397;28;20059;-23
2022/01/31 01:11:44;;;;;;;12.27;11.07;;;17.70;61.60;;;;;;4939764;28;20126;-22
2022/01/31 01:14:10;;;;;;;12.63;10.80;;;17.70;61.30;;;;;;4938906;28;20056;-22
2022/01/31 01:16:36;;;;;;;12.45;10.50;;;17.70;61.30;;;;;;4953745;28;20047;-22
2022/01/31 01:19:02;;;;;;;11.60;10.18;;;17.70;61.20;;;;;;4958769;28;20413;-22
2022/01/31 01:21:28;;;;;;;11.10;9.93;;;17.60;61.50;;;;;;4946487;28;20059;-22
2022/01/31 01:23:53;;;;;;;12.25;10.90;;;17.50;61.70;;;;;;4946656;28;20047;-21
2022/01/31 01:26:19;;;;;;;11.20;10.10;;;17.50;61.70;;;;;;4957206;28;20043;-23
2022/01/31 01:28:46;;;;;;;10.23;9.27;;;17.50;61.60;;;;;;4958540;28;20071;-22
2022/01/31 01:31:11;;;;;;;12.57;10.40;;;17.50;61.70;;;;;;4953614;28;20064;-22
2022/01/31 01:33:40;;;;;;;11.48;10.23;;;17.50;61.60;;;;;;4939363;28;20048;-23
2022/01/31 01:36:06;;;;;;;11.07;9.95;;;17.50;61.70;;;;;;4938300;28;20052;-22
2022/01/31 01:38:32;;;;;;;10.07;9.07;;;17.50;61.70;;;;;;4938892;28;20131;-22
2022/01/31 01:40:59;;;;;;;11.25;9.57;;;17.50;61.60;;;;;;4944364;28;20504;-21
2022/01/31 01:43:25;;;;;;;11.68;9.43;;;17.40;61.60;;;;;;4957805;28;20515;-22
2022/01/31 01:45:54;;;;;;;10.25;9.13;;;17.50;61.70;;;;;;4958358;28;20543;-23
2022/01/31 01:48:20;;;;;;;10.02;8.98;;;17.50;61.70;;;;;;4957055;28;20039;-22
2022/01/31 01:50:46;;;;;;;10.35;9.25;;;17.50;61.70;;;;;;4958239;28;20506;-22
2022/01/31 01:53:14;;;;;;;9.00;8.00;;;17.50;61.70;;;;;;4955664;28;20071;-22
2022/01/31 01:55:40;;;;;;;9.98;8.98;;;17.40;61.90;;;;;;4951774;28;20405;-21
2022/01/31 01:58:13;;;;;;;11.10;8.75;;;17.40;61.90;;;;;;4936833;28;20073;-22
2022/01/31 02:00:58;;;;;;;9.68;8.70;;;17.40;61.80;;;;;;4954284;28;20046;-22
2022/01/31 02:03:24;;;;;;;9.75;8.77;;;17.40;61.90;;;;;;4956744;28;20082;-22
2022/01/31 02:05:50;;;;;;;9.63;8.63;;;17.30;61.90;;;;;;4957963;28;20043;-22
2022/01/31 02:08:18;;;;;;;10.55;8.82;;;17.40;61.90;;;;;;4943860;28;20051;-22
2022/01/31 02:10:43;;;;;;;9.48;8.57;;;17.40;61.90;;;;;;4938674;28;20130;-22
2022/01/31 02:13:09;;;;;;;9.18;8.10;;;17.30;61.90;;;;;;4938501;28;20138;-22
2022/01/31 02:15:35;;;;;;;9.45;8.48;;;17.40;61.90;;;;;;4938594;28;20047;-22
2022/01/31 02:18:02;;;;;;;9.40;8.43;;;17.30;61.90;;;;;;4938566;28;20128;-21
2022/01/31 02:20:27;;;;;;;9.43;8.05;;;17.30;62.00;;;;;;4937941;28;20046;-21
2022/01/31 02:22:53;;;;;;;7.80;7.10;;;17.30;61.90;;;;;;4938697;28;20135;-22
2022/01/31 02:25:19;;;;;;;8.73;7.80;;;17.30;61.90;;;;;;4954957;28;20043;-22
2022/01/31 02:27:44;;;;;;;8.48;7.68;;;17.30;62.00;;;;;;4954838;28;20053;-22
2022/01/31 02:30:12;;;;;;;8.07;7.28;;;17.30;61.90;;;;;;4936541;28;20417;-21
2022/01/31 02:32:37;;;;;;;8.45;7.63;;;17.30;62.10;;;;;;4938397;28;20051;-21
2022/01/31 02:35:04;;;;;;;7.70;7.00;;;17.20;62.20;;;;;;4938790;28;20044;-22
2022/01/31 02:37:30;;;;;;;7.43;6.72;;;17.20;62.20;;;;;;4937270;28;20406;-22
2022/01/31 02:39:56;;;;;;;7.35;6.75;;;17.20;62.30;;;;;;4938143;28;20134;-21
2022/01/31 02:42:22;;;;;;;8.02;7.22;;;17.20;62.20;;;;;;4937685;28;20528;-23
2022/01/31 02:44:48;;;;;;;7.30;6.60;;;17.20;62.10;;;;;;4938791;28;20055;-23
2022/01/31 02:47:20;;;;;;;7.90;7.00;;;17.20;62.10;;;;;;4937631;28;20138;-21
2022/01/31 02:49:57;;;;;;;7.15;6.55;;;17.20;62.20;;;;;;4953191;28;20045;-21
2022/01/31 02:52:24;;;;;;;8.23;6.95;;;17.20;62.30;;;;;;4956540;28;20079;-22
2022/01/31 02:54:50;;;;;;;7.35;6.65;;;17.20;62.10;;;;;;4956660;28;20078;-22
2022/01/31 02:57:15;;;;;;;7.10;6.50;;;17.30;62.10;;;;;;4956076;28;20051;-22
2022/01/31 02:59:41;;;;;;;6.80;6.20;;;17.20;62.10;;;;;;4957294;28;20469;-22
2022/01/31 03:02:06;;;;;;;6.80;6.30;;;17.30;62.10;;;;;;4957237;28;20052;-22
2022/01/31 03:04:32;;;;;;;6.88;6.38;;;17.20;62.10;;;;;;4956159;28;20075;-22
2022/01/31 03:06:58;;;;;;;7.45;6.78;;;17.20;62.20;;;;;;4956561;28;20047;-21
2022/01/31 03:09:23;;;;;;;6.90;6.30;;;17.20;62.40;;;;;;4956444;28;20050;-23
2022/01/31 03:11:49;;;;;;;6.72;6.13;;;17.20;62.20;;;;;;4957244;28;20054;-22
2022/01/31 03:14:19;;;;;;;7.20;6.57;;;17.20;62.30;;;;;;4955987;28;20055;-22
2022/01/31 03:16:47;;;;;;;7.55;6.40;;;17.20;62.00;;;;;;4951444;28;20051;-21
2022/01/31 03:19:14;;;;;;;6.85;6.35;;;17.20;62.30;;;;;;4937279;28;20048;-22
2022/01/31 03:21:39;;;;;;;6.00;5.60;;;17.10;62.40;;;;;;4937895;28;20051;-22
2022/01/31 03:24:06;;;;;;;6.60;6.00;;;17.10;62.50;;;;;;4946739;28;20050;-22
2022/01/31 03:26:31;;;;;;;5.78;5.30;;;17.10;62.40;;;;;;4955629;28;20500;-22
2022/01/31 03:28:57;;;;;;;6.22;5.72;;;17.10;62.50;;;;;;4937844;28;20483;-23
2022/01/31 03:31:23;;;;;;;5.60;5.20;;;17.10;62.50;;;;;;4937233;28;20102;-22
2022/01/31 03:33:48;;;;;;;5.47;4.97;;;17.10;62.40;;;;;;4937812;28;20073;-22
2022/01/31 03:36:14;;;;;;;6.10;5.60;;;17.10;62.40;;;;;;4952216;28;20059;-22
2022/01/31 03:38:43;;;;;;;5.97;5.47;;;17.10;62.30;;;;;;4956813;28;20054;-22
2022/01/31 03:41:12;;;;;;;5.60;5.10;;;17.10;62.40;;;;;;4956218;28;20484;-22
2022/01/31 03:43:38;;;;;;;5.65;5.18;;;17.10;62.30;;;;;;4956321;28;20385;-22
2022/01/31 03:46:04;;;;;;;6.10;5.60;;;17.10;62.60;;;;;;4956884;28;20153;-22
2022/01/31 03:48:29;;;;;;;5.45;5.03;;;17.10;62.40;;;;;;4955044;28;20055;-22
2022/01/31 03:50:56;;;;;;;5.28;4.88;;;17.10;62.30;;;;;;4956400;28;20053;-22
2022/01/31 03:53:21;;;;;;;5.97;5.38;;;17.10;62.40;;;;;;4956179;28;20503;-22
2022/01/31 03:55:47;;;;;;;5.60;5.10;;;17.00;62.50;;;;;;4956116;28;20047;-22
2022/01/31 03:58:13;;;;;;;5.38;4.97;;;17.10;62.50;;;;;;4956219;28;20420;-22
2022/01/31 04:00:38;;;;;;;5.18;4.78;;;17.10;62.30;;;;;;4949505;28;20051;-22
2022/01/31 04:03:04;;;;;;;4.88;4.57;;;17.00;62.40;;;;;;4941122;28;20071;-22
2022/01/31 04:05:31;;;;;;;4.97;4.57;;;17.10;62.40;;;;;;4940464;28;20516;-22
2022/01/31 04:07:57;;;;;;;4.70;4.32;;;17.00;62.30;;;;;;4940758;28;20039;-22
2022/01/31 04:10:23;;;;;;;4.55;4.20;;;17.10;62.50;;;;;;4940340;28;20440;-22
2022/01/31 04:12:48;;;;;;;4.30;4.00;;;17.00;62.50;;;;;;4940879;28;20122;-22
2022/01/31 04:15:14;;;;;;;4.82;4.38;;;17.00;62.50;;;;;;4943535;28;20047;-22
2022/01/31 04:17:40;;;;;;;4.90;4.50;;;17.00;62.50;;;;;;4959855;28;20050;-22
2022/01/31 04:20:07;;;;;;;5.32;4.93;;;17.00;62.50;;;;;;4944134;28;20071;-21
2022/01/31 04:22:36;;;;;;;4.50;4.20;;;17.00;62.50;;;;;;4940264;28;20061;-21
2022/01/31 04:25:05;;;;;;;4.53;4.22;;;17.00;62.50;;;;;;4956779;28;20043;-22
2022/01/31 04:27:43;;;;;;;3.88;3.67;;;17.00;62.50;;;;;;4959015;28;20404;-21
2022/01/31 04:30:12;;;;;;;4.32;4.03;;;17.00;62.40;;;;;;4944728;28;20044;-21
2022/01/31 04:32:37;;;;;;;4.38;4.07;;;17.00;62.60;;;;;;4940036;28;20047;-21
2022/01/31 04:35:03;;;;;;;4.28;3.97;;;17.00;62.70;;;;;;4940578;28;20039;-22
2022/01/31 04:37:29;;;;;;;4.32;4.03;;;16.90;62.60;;;;;;4939168;28;20425;-22
2022/01/31 04:39:54;;;;;;;3.95;3.70;;;17.00;62.70;;;;;;4940088;28;20040;-22
2022/01/31 04:42:20;;;;;;;4.15;3.85;;;17.00;62.60;;;;;;4940319;28;20128;-22
2022/01/31 04:44:46;;;;;;;4.53;4.22;;;17.00;62.70;;;;;;4940288;28;20100;-21
2022/01/31 04:47:11;;;;;;;3.85;3.60;;;17.00;62.80;;;;;;4940311;28;20055;-22
2022/01/31 04:49:37;;;;;;;4.15;3.95;;;16.90;62.70;;;;;;4940264;28;20062;-23
2022/01/31 04:52:03;;;;;;;3.53;3.33;;;16.90;62.70;;;;;;4940024;28;20051;-22
2022/01/31 04:54:29;;;;;;;4.00;3.80;;;17.00;62.80;;;;;;4939558;28;20391;-22
2022/01/31 04:56:54;;;;;;;3.72;3.50;;;16.90;62.70;;;;;;4940128;28;20052;-22
2022/01/31 04:59:20;;;;;;;3.22;3.03;;;16.90;62.70;;;;;;4939729;28;20047;-23
2022/01/31 05:01:48;;;;;;;3.22;3.03;;;16.90;62.70;;;;;;4946693;28;20058;-22
2022/01/31 05:04:14;;;;;;;4.13;3.83;;;17.00;62.70;;;;;;4959226;28;20055;-22
2022/01/31 05:06:41;;;;;;;4.35;4.05;;;17.00;62.70;;;;;;4953162;28;20963;-22
2022/01/31 05:09:08;;;;;;;4.00;3.70;;;17.00;62.70;;;;;;4939516;28;20044;-22
2022/01/31 05:11:34;;;;;;;3.70;3.40;;;16.90;62.60;;;;;;4948760;28;20053;-22
2022/01/31 05:14:00;;;;;;;4.10;3.80;;;16.90;62.80;;;;;;4958316;28;20531;-22
2022/01/31 05:16:25;;;;;;;3.60;3.40;;;16.90;62.80;;;;;;4958113;28;20587;-22
2022/01/31 05:18:51;;;;;;;3.47;3.28;;;16.90;62.70;;;;;;4958176;28;20043;-22
2022/01/31 05:21:16;;;;;;;3.80;3.50;;;16.90;62.60;;;;;;4938847;28;20079;-22
2022/01/31 05:23:42;;;;;;;3.10;2.90;;;16.90;62.80;;;;;;4945346;28;20095;-22
2022/01/31 05:26:07;;;;;;;3.30;3.10;;;16.90;62.80;;;;;;4957408;28;20058;-22
2022/01/31 05:28:33;;;;;;;3.60;3.40;;;16.90;62.70;;;;;;4954903;28;20126;-22
2022/01/31 05:30:59;;;;;;;3.40;3.20;;;16.90;62.70;;;;;;4958724;28;20047;-22
2022/01/31 05:33:24;;;;;;;3.20;3.00;;;16.90;62.60;;;;;;4942628;28;20040;-22
2022/01/31 05:35:50;;;;;;;3.00;2.80;;;16.90;62.60;;;;;;4939073;28;20382;-22
2022/01/31 05:38:15;;;;;;;3.20;3.00;;;16.90;62.70;;;;;;4939174;28;20039;-22
2022/01/31 05:40:41;;;;;;;3.05;2.85;;;16.90;62.70;;;;;;4938008;28;20048;-22
2022/01/31 05:43:07;;;;;;;3.28;3.08;;;16.90;62.60;;;;;;4939189;28;20095;-22
2022/01/31 05:45:32;;;;;;;3.05;2.85;;;16.90;62.60;;;;;;4938616;28;20783;-21
2022/01/31 05:47:58;;;;;;;3.10;2.90;;;16.90;62.80;;;;;;4937837;28;20040;-22
2022/01/31 05:50:24;;;;;;;3.40;3.10;;;16.90;62.70;;;;;;4938469;28;20095;-23
2022/01/31 05:52:50;;;;;;;3.50;3.20;;;16.90;62.70;;;;;;4956491;28;20043;-22
2022/01/31 05:55:16;;;;;;;3.10;2.90;;;16.90;62.60;;;;;;4956826;28;20126;-22
2022/01/31 05:57:42;;;;;;;3.17;2.97;;;16.90;62.80;;;;;;4957613;28;20067;-22
2022/01/31 06:00:09;;;;;;;2.92;2.72;;;16.80;62.80;;;;;;4957524;28;20043;-21
2022/01/31 06:02:35;;;;;;;3.10;2.80;;;16.80;62.70;;;;;;4957429;28;20043;-22
2022/01/31 06:05:04;;;;;;;2.97;2.78;;;16.90;62.80;;;;;;4958059;28;20043;-22
2022/01/31 06:07:29;;;;;;;2.85;2.65;;;16.90;62.70;;;;;;4945450;28;20070;-21
2022/01/31 06:09:55;;;;;;;2.72;2.53;;;16.80;62.80;;;;;;4938710;28;20122;-22
2022/01/31 06:12:20;;;;;;;2.67;2.47;;;16.80;62.80;;;;;;4938398;28;20055;-22
2022/01/31 06:14:46;;;;;;;2.85;2.65;;;16.80;62.70;;;;;;4938685;28;20039;-23
2022/01/31 06:17:12;;;;;;;2.88;2.67;;;16.80;62.90;;;;;;4957019;28;20043;-22
2022/01/31 06:19:37;;;;;;;2.88;2.67;;;16.80;62.90;;;;;;4956579;28;20043;-21
2022/01/31 06:22:03;;;;;;;2.60;2.40;;;16.80;62.80;;;;;;4938359;28;20126;-22
2022/01/31 06:24:29;;;;;;;3.38;2.97;;;16.80;62.80;;;;;;4948845;28;20479;-22
2022/01/31 06:26:54;;;;;;;3.20;2.92;;;16.80;62.80;;;;;;4957023;28;20103;-21
2022/01/31 06:29:20;;;;;;;3.22;3.03;;;16.80;62.80;;;;;;4957023;28;20039;-22
2022/01/31 06:31:46;;;;;;;3.00;2.80;;;16.80;62.80;;;;;;4957593;28;20090;-21
2022/01/31 06:34:11;;;;;;;3.08;2.88;;;16.80;62.70;;;;;;4957520;28;20040;-22
2022/01/31 06:36:37;;;;;;;2.50;2.38;;;16.80;62.70;;;;;;4956085;28;20110;-21
2022/01/31 06:39:03;;;;;;;2.40;2.30;;;16.80;62.70;;;;;;4957437;28;20516;-21
2022/01/31 06:41:29;;;;;;;2.45;2.35;;;16.80;62.60;;;;;;4956710;28;20089;-22
2022/01/31 06:43:55;;;;;;;2.53;2.42;;;16.80;62.70;;;;;;4954990;28;20524;-22
2022/01/31 06:46:20;;;;;;;2.70;2.50;;;16.80;62.70;;;;;;4957211;28;20416;-23
2022/01/31 06:48:46;;;;;;;2.88;2.67;;;16.80;62.80;;;;;;4956815;28;20043;-21
2022/01/31 06:51:12;;;;;;;2.53;2.42;;;16.70;62.90;;;;;;4957283;28;20423;-21
2022/01/31 06:53:37;;;;;;;2.70;2.50;;;16.70;62.90;;;;;;4940853;28;20052;-21
2022/01/31 06:56:03;;;;;;;2.25;2.15;;;16.80;62.90;;;;;;4938164;28;20525;-21
2022/01/31 06:58:29;;;;;;;2.20;2.10;;;16.70;63.00;;;;;;4937507;28;20063;-21
2022/01/31 07:00:54;;;;;;;2.63;2.42;;;16.70;63.10;;;;;;4947560;28;20047;-22
2022/01/31 07:03:20;;;;;;;2.58;2.38;;;16.70;62.90;;;;;;4955980;28;20164;-21
2022/01/31 07:05:46;;;;;;;2.25;2.15;;;16.70;63.00;;;;;;4956562;28;20051;-21
2022/01/31 07:08:13;;;;;;;1.75;1.65;;;16.80;63.00;;;;;;4956090;28;20047;-22
2022/01/31 07:10:38;;;;;;;1.80;1.60;;;16.70;63.00;;;;;;4952428;28;20051;-22
2022/01/31 07:13:14;;;;;;;2.38;2.25;;;16.70;63.00;;;;;;4952834;28;20043;-22
2022/01/31 07:15:39;;;;;;;2.13;2.03;;;16.70;63.10;;;;;;4951633;28;20067;-23
2022/01/31 07:18:05;;;;;;;2.10;2.00;;;16.70;63.00;;;;;;4950988;28;20099;-22
2022/01/31 07:20:40;;;;;;;2.28;2.15;;;16.70;63.00;;;;;;4947704;28;20059;-21
2022/01/31 07:23:28;;;;;;;2.58;2.40;;;16.70;63.20;;;;;;4953887;28;20567;-22
2022/01/31 07:25:54;;;;;;;1.92;1.83;;;16.70;63.10;;;;;;4954842;28;20086;-22
2022/01/31 07:28:20;;;;;;;2.13;2.03;;;16.70;63.20;;;;;;4954067;28;20070;-21
2022/01/31 07:30:56;;;;;;;2.03;1.92;;;16.70;63.00;;;;;;4954717;28;20050;-22
2022/01/31 07:33:22;;;;;;;1.98;1.88;;;16.70;63.10;;;;;;4953798;28;20054;-22
2022/01/31 07:35:49;;;;;;;2.17;2.08;;;16.70;63.20;;;;;;4953335;28;20560;-21
2022/01/31 07:38:15;;;;;;;2.25;2.15;;;16.70;63.20;;;;;;4958446;28;20797;-22
2022/01/31 07:40:40;;;;;;;2.15;2.05;;;16.70;63.00;;;;;;4957207;28;20425;-22
2022/01/31 07:43:06;;;;;;;1.85;1.75;;;16.70;63.10;;;;;;4956064;28;20043;-22
2022/01/31 07:45:31;;;;;;;1.88;1.73;;;16.70;63.10;;;;;;4959327;28;20520;-22
2022/01/31 07:47:57;;;;;;;1.85;1.75;;;16.70;63.10;;;;;;4960199;28;20061;-22
2022/01/31 07:50:23;;;;;;;1.80;1.70;;;16.70;63.20;;;;;;4947319;28;20679;-22
2022/01/31 07:52:48;;;;;;;2.38;2.17;;;16.70;63.10;;;;;;4951404;28;20568;-22
2022/01/31 07:55:14;;;;;;;3.92;1.83;;;16.60;63.00;;;;;;4958957;28;20047;-22
2022/01/31 07:57:45;;;;;;;2.00;1.90;;;16.70;63.00;;;;;;4958751;28;20043;-21
2022/01/31 08:00:12;;;;;;;1.95;1.85;;;16.70;63.10;;;;;;4948843;28;20071;-21
2022/01/31 08:02:37;;;;;;;2.25;1.88;;;16.60;63.10;;;;;;4959002;28;20472;-21
2022/01/31 08:05:03;;;;;;;3.10;1.83;;;16.70;63.00;;;;;;4959826;28;20055;-21
2022/01/31 08:07:29;;;;;;;2.00;1.80;;;16.70;62.90;;;;;;4958584;28;20043;-21
2022/01/31 08:09:54;;;;;;;2.13;1.90;;;16.70;62.60;;;;;;4960011;28;20134;-21
2022/01/31 08:12:20;;;;;;;2.00;1.85;;;16.70;62.60;;;;;;4960098;28;20381;-22
2022/01/31 08:14:47;;;;;;;2.20;2.10;;;16.80;62.60;;;;;;4954705;28;20067;-21
2022/01/31 08:17:13;;;;;;;1.90;1.80;;;16.80;62.50;;;;;;4958081;28;20050;-21
2022/01/31 08:19:38;;;;;;;2.25;2.05;;;16.80;62.50;;;;;;4959081;28;20047;-21
2022/01/31 08:22:04;;;;;;;2.25;1.60;;;16.70;62.60;;;;;;4959344;28;20151;-21
2022/01/31 08:24:30;;;;;;;2.90;1.70;;;16.70;62.70;;;;;;4955723;28;20054;-21
2022/01/31 08:26:55;;;;;;;3.53;1.70;;;16.70;62.80;;;;;;4959414;28;20039;-22
2022/01/31 08:29:28;;;;;;;2.20;2.00;;;16.70;62.70;;;;;;4959696;28;20106;-21
2022/01/31 08:31:53;;;;;;;2.17;1.75;;;16.80;62.50;;;;;;4955000;28;20111;-21
2022/01/31 08:35:47;;;;;;;1.63;1.52;;;16.70;62.70;;;;;;4940314;28;20513;-21
2022/01/31 08:37:08;;;;;;;2.63;1.40;;;16.70;62.80;;;;;;4939469;28;20051;-21
2022/01/31 08:39:33;;;;;;;1.60;1.50;;;16.80;62.60;;;;;;4939575;28;20086;-21
2022/01/31 08:41:59;;;;;;;1.70;1.60;;;16.80;62.60;;;;;;4948120;28;20051;-21
2022/01/31 08:44:24;;;;;;;1.50;1.40;;;16.80;62.80;;;;;;4959530;28;20082;-20
2022/01/31 08:46:51;;;;;;;1.52;1.40;;;16.70;62.60;;;;;;4957294;28;20055;-21
2022/01/31 08:49:16;;;;;;;3.22;1.92;;;16.70;62.70;;;;;;4977808;28;20045;-21
2022/01/31 08:51:42;;;;;;;1.73;1.63;;;16.80;62.70;;;;;;4977732;28;20051;-21
2022/01/31 08:54:09;;;;;;;2.38;1.75;;;16.70;62.70;;;;;;4946850;28;20453;-21
2022/01/31 08:56:40;;;;;;;1.60;1.50;;;16.70;62.80;;;;;;4956477;28;20468;-23
2022/01/31 08:59:09;;;;;;;2.53;1.60;;;16.70;62.90;;;;;;4951530;28;20047;-22
2022/01/31 09:01:35;;;;;;;1.85;1.52;;;16.70;63.10;;;;;;4954270;28;20484;-23
2022/01/31 09:04:04;;;;;;;1.83;1.73;;;16.70;63.20;;;;;;4958988;28;20118;-22
2022/01/31 09:06:31;;;;;;;2.63;1.48;;;16.60;63.30;;;;;;4958068;28;20114;-22
2022/01/31 09:08:57;;;;;;;1.70;1.60;;;16.70;63.20;;;;;;4953261;28;20509;-23
2022/01/31 09:11:24;;;;;;;1.63;1.52;;;16.70;63.10;;;;;;4939687;28;20075;-22
2022/01/31 09:13:50;;;;;;;1.80;1.70;;;16.70;62.90;;;;;;4939481;28;20157;-22
2022/01/31 09:16:15;;;;;;;1.88;1.77;;;16.70;63.00;;;;;;4950442;28;20568;-22
2022/01/31 09:18:41;;;;;;;1.48;1.38;;;16.70;63.00;;;;;;4957718;28;20043;-21
2022/01/31 09:21:07;;;;;;;1.60;1.50;;;16.70;63.20;;;;;;4957883;28;20117;-21
2022/01/31 09:23:32;;;;;;;1.88;1.52;;;16.70;63.10;;;;;;4957812;28;20035;-21
2022/01/31 09:25:58;;;;;;;2.78;1.77;;;16.70;63.00;;;;;;4954833;28;20054;-22
2022/01/31 09:28:24;;;;;;;2.58;1.50;;;16.70;63.30;;;;;;4954004;28;20130;-22
2022/01/31 09:30:51;;;;;;;1.70;1.42;;;16.70;63.70;;;;;;4957732;28;20058;-22
2022/01/31 09:33:17;;;;;;;2.22;1.70;;;16.70;63.70;;;;;;4952339;28;20047;-22
2022/01/31 09:35:43;;;;;;;1.73;1.40;;;16.70;63.50;;;;;;4938297;28;20047;-23
2022/01/31 09:38:11;;;;;;;1.50;1.20;;;16.70;63.90;;;;;;4939070;28;20660;-22
2022/01/31 09:40:37;;;;;;;2.00;1.58;;;16.70;63.80;;;;;;4943998;28;20518;-22
2022/01/31 09:51:28;;;;;;;1.83;1.63;;;16.70;63.60;;;;;;4960146;28;20052;-22
2022/01/31 09:53:59;;;;;;;2.92;1.30;;;16.80;63.40;;;;;;4938442;28;20044;-23
2022/01/31 09:56:26;;;;;;;1.42;1.33;;;16.70;63.40;;;;;;4938382;28;20260;-21
2022/01/31 09:58:53;;;;;;;1.30;1.20;;;16.70;63.40;;;;;;4954001;28;20059;-22
2022/01/31 10:01:33;;;;;;;1.60;1.50;;;16.80;63.30;;;;;;4957415;28;20521;-22
2022/01/31 10:04:00;;;;;;;1.70;1.35;;;16.80;63.30;;;;;;4957517;28;20047;-22
2022/01/31 10:06:38;;;;;;;1.60;1.50;;;16.80;63.20;;;;;;4957685;28;20075;-22
2022/01/31 10:09:06;;;;;;;1.25;1.15;;;16.80;63.20;;;;;;4953743;28;20043;-23
2022/01/31 10:11:56;;;;;;;1.52;1.42;;;16.80;63.20;;;;;;4938392;28;20051;-21
2022/01/31 10:17:24;;;;;;;2.58;1.30;;;16.70;63.60;;;;;;4957033;28;20054;-22
2022/01/31 10:19:51;;;;;;;1.67;1.40;;;16.70;63.80;;;;;;4956938;28;20501;-22
2022/01/31 10:22:18;;;;;;;1.45;1.10;;;16.70;63.80;;;;;;4956867;28;20100;-22
2022/01/31 10:24:45;;;;;;;1.63;1.52;;;16.70;63.80;;;;;;4944129;28;20043;-21
2022/01/31 10:27:19;;;;;;;1.38;1.27;;;16.70;64.00;;;;;;4943452;28;20051;-22
2022/01/31 10:29:46;;;;;;;1.30;1.20;;;16.70;63.80;;;;;;4938978;28;20054;-21
2022/01/31 10:32:17;;;;;;;1.52;1.42;;;16.70;64.00;;;;;;4942838;28;20059;-22
2022/01/31 10:34:56;;;;;;;2.90;1.55;;;16.70;63.80;;;;;;4937745;28;20048;-21
2022/01/31 10:37:23;;;;;;;1.30;1.20;;;16.80;63.60;;;;;;4950175;28;20110;-22
2022/01/31 10:45:40;;;;;;;1.20;1.02;;;16.80;63.20;;;;;;4957249;28;20416;-21
2022/01/31 10:56:37;;;;;;;1.50;1.10;;;16.80;63.70;;;;;;4937949;28;20103;-22
2022/01/31 10:59:25;;;;;;;3.83;1.27;;;16.80;63.00;;;;;;4937329;28;20054;-22
2022/01/31 11:01:52;;;;;;;1.20;1.05;;;16.80;63.10;;;;;;4936401;28;20043;-22
2022/01/31 11:04:17;;;;;;;3.15;1.10;;;16.80;63.20;;;;;;4948626;28;20493;-21
2022/01/31 11:06:45;;;;;;;1.23;1.13;;;16.80;63.10;;;;;;4956131;28;20047;-22
2022/01/31 11:09:12;;;;;;;1.10;1.00;;;16.80;63.20;;;;;;4951122;28;20378;-21
2022/01/31 11:11:39;;;;;;;0.80;0.65;;;16.80;63.10;;;;;;4939589;28;20498;-22
2022/01/31 11:14:07;;;;;;;2.28;0.98;;;16.90;62.80;;;;;;4942108;28;20051;-22
2022/01/31 11:16:33;;;;;;;1.30;1.15;;;16.90;62.60;;;;;;4954886;28;20500;-22
2022/01/31 11:19:02;;;;;;;4.53;1.15;;;16.90;62.80;;;;;;4960301;28;20158;-22
2022/01/31 11:21:31;;;;;;;1.40;1.23;;;16.90;63.20;;;;;;4959072;28;20051;-22
2022/01/31 11:24:02;;;;;;;1.20;1.10;;;16.90;63.40;;;;;;4955651;28;20051;-20
2022/01/31 11:26:34;;;;;;;1.38;1.17;;;16.80;64.30;;;;;;4960215;28;20067;-21
2022/01/31 11:28:59;;;;;;;0.95;0.90;;;16.80;64.80;;;;;;4939617;28;20047;-21
2022/01/31 11:31:26;;;;;;;3.20;0.82;;;16.80;65.00;;;;;;4951495;28;20079;-21
2022/01/31 11:33:51;;;;;;;1.30;0.90;;;16.80;65.30;;;;;;4955445;28;20050;-22
2022/01/31 11:36:17;;;;;;;1.25;1.00;;;16.70;64.80;;;;;;4923443;28;20051;-21
2022/01/31 11:38:42;;;;;;;2.25;1.08;;;16.70;64.60;;;;;;4949212;28;20131;-21
2022/01/31 11:41:08;;;;;;;1.35;0.85;;;16.80;64.40;;;;;;4941106;28;20064;-21
2022/01/31 11:43:34;;;;;;;2.22;1.00;;;16.80;64.30;;;;;;4939979;28;20042;-21
2022/01/31 11:46:00;;;;;;;1.35;1.13;;;16.80;64.00;;;;;;4956834;28;20128;-21
2022/01/31 11:48:29;;;;;;;1.77;1.25;;;16.80;64.00;;;;;;4960382;28;20453;-24
2022/01/31 11:50:56;;;;;;;1.67;1.00;;;16.80;63.90;;;;;;4959349;28;20047;-21
2022/01/31 11:53:33;;;;;;;0.88;0.65;;;16.90;63.80;;;;;;4955101;28;20508;-20
2022/01/31 11:56:28;;;;;;;1.80;0.77;;;16.90;63.80;;;;;;4940385;28;20075;-22
2022/01/31 11:58:54;;;;;;;3.38;0.93;;;16.90;63.70;;;;;;4950210;28;20496;-21
2022/01/31 12:01:20;;;;;;;1.40;1.30;;;16.80;63.70;;;;;;4958920;28;20061;-21
2022/01/31 12:03:51;;;;;;;1.50;1.07;;;16.80;63.60;;;;;;4611435;28;10000135;-21
2022/01/31 12:06:23;;;;;;;1.23;1.13;;;16.80;63.60;;;;;;4949095;28;20279;-21
2022/01/31 12:08:50;;;;;;;1.42;1.33;;;16.90;63.70;;;;;;4955735;28;20043;-20
2022/01/31 12:11:22;;;;;;;0.93;0.70;;;16.80;63.50;;;;;;4952000;28;20065;-21
2022/01/31 12:13:51;;;;;;;3.45;1.08;;;16.80;64.00;;;;;;4951657;28;20071;-21
2022/01/31 12:22:20;;;;;;;;;;;16.80;64.10;;;;;;4954656;28;20106;-21
2022/01/31 12:24:39;;;;;;;0.68;0.68;;;16.80;64.20;;;;;;4953699;28;19948;-21
2022/01/31 12:27:10;;;;;;;0.80;0.70;;;16.80;64.20;;;;;;4955112;28;20053;-21
2022/01/31 12:29:43;;;;;;;1.08;0.75;;;16.80;63.90;;;;;;4947363;28;20848;-21
2022/01/31 12:32:13;;;;;;;2.55;0.88;;;16.80;64.00;;;;;;4968759;28;20516;-21
2022/01/31 12:34:41;;;;;;;1.42;0.90;;;16.90;63.80;;;;;;4952279;28;20806;-21
2022/01/31 12:37:22;;;;;;;1.10;0.80;;;16.90;63.70;;;;;;4953351;28;20047;-21
2022/01/31 12:39:58;;;;;;;0.80;0.77;;;16.90;63.70;;;;;;4951843;28;20083;-20
2022/01/31 12:45:53;;;;;;;1.15;0.80;;;17.00;63.50;;;;;;4953171;28;20050;-20
2022/01/31 12:48:20;;;;;;;0.93;0.65;;;17.00;63.40;;;;;;4954064;28;20500;-22
2022/01/31 12:50:51;;;;;;;1.17;0.80;;;17.00;63.40;;;;;;4954968;28;20533;-20
2022/01/31 12:53:23;;;;;;;0.98;0.88;;;17.00;63.50;;;;;;4955478;28;20043;-20
2022/01/31 12:56:01;;;;;;;1.33;0.65;;;17.00;63.20;;;;;;4957200;28;20054;-21
2022/01/31 12:58:31;;;;;;;1.48;0.93;;;17.10;63.30;;;;;;4958576;28;20050;-20
2022/01/31 13:00:56;;;;;;;1.00;0.90;;;17.10;63.20;;;;;;4955457;28;20516;-21
2022/01/31 13:03:35;;;;;;;1.00;0.90;;;17.10;63.10;;;;;;4958196;28;20613;-20
2022/01/31 13:06:00;;;;;;;0.90;0.80;;;17.10;63.10;;;;;;4953476;28;20039;-21
2022/01/31 13:08:26;;;;;;;0.80;0.70;;;17.20;63.20;;;;;;4952584;28;20054;-21
2022/01/31 13:10:53;;;;;;;0.50;0.50;;;17.30;62.90;;;;;;4939140;28;20043;-21
2022/01/31 13:13:37;;;;;;;0.80;0.80;;;17.20;62.70;;;;;;4952545;28;20047;-21
2022/01/31 13:16:09;;;;;;;1.15;0.88;;;17.20;62.80;;;;;;4955510;28;20074;-21
2022/01/31 13:18:35;;;;;;;0.68;0.60;;;17.10;62.90;;;;;;4950979;28;20051;-21